Time;durP1;ratioP1;P1;durP2;ratioP2;P2;SDS_P1;SDS_P2;PMS_P1;PMS_P2;Temp;Humidity;BMP_temperature;BMP_pressure;BME280_temperature;BME280_humidity;BME280_pressure;Samples;Min_cycle;Max_cycle;Signal;HPM_P1;HPM_P2
2022/04/20 00:02:00;;;;;;;2.63;1.17;;;8.80;72.10;;;;;;5049400;28;20114;-59
2022/04/20 00:04:26;;;;;;;4.13;1.40;;;8.80;73.20;;;;;;5048103;28;20029;-60
2022/04/20 00:06:51;;;;;;;8.45;1.20;;;8.80;71.90;;;;;;5048576;28;20025;-59
2022/04/20 00:09:17;;;;;;;5.70;2.17;;;8.70;73.10;;;;;;5047945;28;20056;-60
2022/04/20 00:11:42;;;;;;;3.00;1.35;;;8.60;71.80;;;;;;5048273;28;20035;-59
2022/04/20 00:14:08;;;;;;;3.92;1.42;;;8.60;72.50;;;;;;5028426;28;20615;-58
2022/04/20 00:16:33;;;;;;;2.97;1.30;;;8.60;72.50;;;;;;5050933;28;20037;-60
2022/04/20 00:18:59;;;;;;;3.35;1.20;;;8.50;73.80;;;;;;5051144;28;20039;-59
2022/04/20 00:21:24;;;;;;;3.20;1.17;;;8.40;74.80;;;;;;5051976;28;20032;-59
2022/04/20 00:23:50;;;;;;;3.47;1.20;;;8.30;74.70;;;;;;5051725;28;20443;-59
2022/04/20 00:26:15;;;;;;;2.30;1.40;;;8.30;74.40;;;;;;5051996;28;20472;-59
2022/04/20 00:28:41;;;;;;;2.83;1.27;;;8.20;74.90;;;;;;5049540;28;20036;-59
2022/04/20 00:31:06;;;;;;;9.57;1.67;;;8.20;76.20;;;;;;5051890;28;20067;-60
2022/04/20 00:33:32;;;;;;;5.30;1.45;;;8.10;76.10;;;;;;5050967;28;20040;-59
2022/04/20 00:35:57;;;;;;;6.57;1.40;;;8.00;76.30;;;;;;5051782;28;20082;-58
2022/04/20 00:38:23;;;;;;;4.90;1.25;;;8.00;75.60;;;;;;5050912;28;20041;-60
2022/04/20 00:40:49;;;;;;;2.15;1.30;;;8.00;75.30;;;;;;5050692;28;20043;-59
2022/04/20 00:43:15;;;;;;;5.82;1.75;;;8.00;75.10;;;;;;5050863;28;20043;-58
2022/04/20 00:45:42;;;;;;;3.42;1.92;;;8.10;74.50;;;;;;5051684;28;20124;-57
2022/04/20 00:48:10;;;;;;;6.82;1.58;;;8.20;74.90;;;;;;5050380;28;20115;-60
2022/04/20 00:50:36;;;;;;;3.15;1.52;;;8.20;74.60;;;;;;5050815;28;20126;-58
2022/04/20 00:53:02;;;;;;;3.25;1.33;;;8.20;74.50;;;;;;5049338;28;20654;-59
2022/04/20 00:55:28;;;;;;;2.67;1.50;;;8.20;74.90;;;;;;5049286;28;20041;-59
2022/04/20 00:57:53;;;;;;;3.78;1.60;;;8.20;74.60;;;;;;5049839;28;20040;-58
2022/04/20 01:00:19;;;;;;;2.53;1.50;;;8.20;74.40;;;;;;5050751;28;20041;-58
2022/04/20 01:02:44;;;;;;;3.78;1.50;;;8.20;74.30;;;;;;5034507;28;20114;-59
2022/04/20 01:05:10;;;;;;;9.18;1.63;;;8.20;74.30;;;;;;5052321;28;20435;-58
2022/04/20 01:07:37;;;;;;;3.95;2.22;;;8.20;74.80;;;;;;5051196;28;20036;-57
2022/04/20 01:10:03;;;;;;;4.45;1.60;;;8.10;75.50;;;;;;5051275;28;20035;-58
2022/04/20 01:12:29;;;;;;;3.95;2.15;;;8.00;75.20;;;;;;5049974;28;20017;-59
2022/04/20 01:14:55;;;;;;;1.98;1.30;;;7.90;75.80;;;;;;5050201;28;20117;-59
2022/04/20 01:17:21;;;;;;;2.60;1.33;;;7.80;76.40;;;;;;5049507;28;20059;-59
2022/04/20 01:19:46;;;;;;;3.75;1.55;;;7.80;76.70;;;;;;5050729;28;20036;-59
2022/04/20 01:22:12;;;;;;;2.95;1.60;;;7.70;78.70;;;;;;5051015;28;20036;-59
2022/04/20 01:24:38;;;;;;;3.25;1.50;;;7.60;78.60;;;;;;5051732;28;20024;-58
2022/04/20 01:27:05;;;;;;;1.50;1.20;;;7.50;78.60;;;;;;5050395;28;20039;-59
2022/04/20 01:29:32;;;;;;;3.33;1.65;;;7.50;79.20;;;;;;5050976;28;20094;-58
2022/04/20 01:31:57;;;;;;;3.88;1.27;;;7.50;78.70;;;;;;5050235;28;20084;-59
2022/04/20 01:34:23;;;;;;;1.67;1.20;;;7.50;78.60;;;;;;5051334;28;20033;-59
2022/04/20 01:36:49;;;;;;;4.03;1.75;;;7.50;78.80;;;;;;5051224;28;20489;-59
2022/04/20 01:39:15;;;;;;;2.65;1.67;;;7.50;78.90;;;;;;5047263;28;20102;-59
2022/04/20 01:41:42;;;;;;;9.20;1.63;;;7.50;79.20;;;;;;5047081;28;20048;-60
2022/04/20 01:44:07;;;;;;;3.10;1.48;;;7.50;79.00;;;;;;5050203;28;20032;-60
2022/04/20 01:46:33;;;;;;;2.85;1.67;;;7.50;79.10;;;;;;5051301;28;20427;-60
2022/04/20 01:48:59;;;;;;;2.83;1.50;;;7.40;79.70;;;;;;5050506;28;20033;-60
2022/04/20 01:54:10;;;;;;;2.00;1.58;;;7.40;81.20;;;;;;5050391;28;20052;-58
2022/04/20 01:56:36;;;;;;;3.25;1.73;;;7.30;80.40;;;;;;5036531;28;20037;-59
2022/04/20 01:59:01;;;;;;;2.08;1.33;;;7.30;80.30;;;;;;5050357;28;20124;-60
2022/04/20 02:04:11;;;;;;;3.58;1.60;;;7.40;80.40;;;;;;5032034;28;20155;-59
2022/04/20 02:06:36;;;;;;;2.53;1.50;;;7.30;80.60;;;;;;5051221;28;20555;-60
2022/04/20 02:09:02;;;;;;;2.83;1.48;;;7.30;81.20;;;;;;5050080;28;20032;-59
2022/04/20 02:11:28;;;;;;;2.83;1.60;;;7.30;81.50;;;;;;5051465;28;20068;-59
2022/04/20 02:16:22;;;;;;;2.88;1.23;;;7.20;81.50;;;;;;5065962;28;20052;-56
2022/04/20 02:18:47;;;;;;;3.03;1.60;;;7.30;81.40;;;;;;5067875;28;20090;-58
2022/04/20 02:21:13;;;;;;;2.33;1.50;;;7.20;81.50;;;;;;5069872;28;20446;-58
2022/04/20 02:23:38;;;;;;;4.40;1.60;;;7.30;81.60;;;;;;5066791;28;20096;-52
2022/04/20 02:26:04;;;;;;;3.83;1.80;;;7.20;81.90;;;;;;5049531;28;20504;-55
2022/04/20 02:28:29;;;;;;;3.97;1.70;;;7.20;81.50;;;;;;5043969;28;20025;-54
2022/04/20 02:30:55;;;;;;;4.82;1.65;;;7.20;82.10;;;;;;5040874;28;20047;-58
2022/04/20 02:33:20;;;;;;;6.88;1.92;;;7.20;82.10;;;;;;5044964;28;20116;-55
2022/04/20 02:35:46;;;;;;;3.40;1.70;;;7.20;82.50;;;;;;5038501;28;20084;-57
2022/04/20 02:38:15;;;;;;;4.80;1.35;;;7.10;82.30;;;;;;5038033;28;20037;-59
2022/04/20 02:40:41;;;;;;;4.03;1.50;;;7.10;82.90;;;;;;5050430;28;20029;-58
2022/04/20 02:43:07;;;;;;;4.90;2.00;;;7.00;83.20;;;;;;5049597;28;20120;-58
2022/04/20 02:45:33;;;;;;;6.00;1.75;;;7.00;83.80;;;;;;5050666;28;20036;-57
2022/04/20 02:48:00;;;;;;;3.15;1.73;;;6.90;83.90;;;;;;5049747;28;20025;-57
2022/04/20 02:50:27;;;;;;;3.97;1.60;;;6.90;84.60;;;;;;5047759;28;20033;-55
2022/04/20 02:52:53;;;;;;;3.33;1.42;;;6.90;84.80;;;;;;5052544;28;20037;-56
2022/04/20 02:55:19;;;;;;;5.20;1.60;;;6.90;85.10;;;;;;5039848;28;20021;-59
2022/04/20 02:57:44;;;;;;;3.58;1.70;;;6.90;85.20;;;;;;5040531;28;20037;-55
2022/04/20 03:00:11;;;;;;;3.85;1.73;;;6.90;85.30;;;;;;5035688;28;20037;-57
2022/04/20 03:02:36;;;;;;;2.72;1.67;;;6.90;84.90;;;;;;5014127;28;20141;-56
2022/04/20 03:05:02;;;;;;;3.88;1.65;;;6.80;85.70;;;;;;5030720;28;20116;-55
2022/04/20 03:07:28;;;;;;;2.50;1.67;;;6.80;86.10;;;;;;5030713;28;20060;-55
2022/04/20 03:09:53;;;;;;;1.90;1.30;;;6.80;86.60;;;;;;5030482;28;20045;-56
2022/04/20 03:12:19;;;;;;;10.02;1.75;;;6.70;86.60;;;;;;5032155;28;20187;-55
2022/04/20 03:14:44;;;;;;;3.17;1.80;;;6.70;86.80;;;;;;5050168;28;20594;-56
2022/04/20 03:17:10;;;;;;;4.07;1.65;;;6.70;86.40;;;;;;5036561;28;20048;-57
2022/04/20 03:19:36;;;;;;;3.58;1.63;;;6.70;86.50;;;;;;5042342;28;20521;-58
2022/04/20 03:22:02;;;;;;;2.42;1.60;;;6.70;86.30;;;;;;5044484;28;20025;-55
2022/04/20 03:24:27;;;;;;;6.45;1.60;;;6.80;87.00;;;;;;5049362;28;20408;-58
2022/04/20 03:26:53;;;;;;;6.78;2.45;;;6.70;86.70;;;;;;5037528;28;20029;-57
2022/04/20 03:29:18;;;;;;;2.97;1.60;;;6.70;87.00;;;;;;5041302;28;20039;-54
2022/04/20 03:31:44;;;;;;;3.88;1.73;;;6.70;87.20;;;;;;5037342;28;20084;-56
2022/04/20 03:34:11;;;;;;;2.53;1.45;;;6.70;87.10;;;;;;5046119;28;20035;-52
2022/04/20 03:36:37;;;;;;;2.88;1.80;;;6.70;87.50;;;;;;5048139;28;20102;-58
2022/04/20 03:39:03;;;;;;;3.38;1.80;;;6.60;87.50;;;;;;5041427;28;20040;-56
2022/04/20 03:41:29;;;;;;;4.03;1.70;;;6.60;87.70;;;;;;5044220;28;20021;-56
2022/04/20 03:43:54;;;;;;;2.45;1.90;;;6.60;87.80;;;;;;5043273;28;20028;-56
2022/04/20 03:46:22;;;;;;;5.32;1.83;;;6.60;88.20;;;;;;5040560;28;20030;-55
2022/04/20 03:48:47;;;;;;;5.45;1.80;;;6.60;88.30;;;;;;5042190;28;20051;-58
2022/04/20 03:51:13;;;;;;;2.63;1.55;;;6.60;88.30;;;;;;5043844;28;20033;-56
2022/04/20 03:53:38;;;;;;;3.20;1.23;;;6.60;88.60;;;;;;5052151;28;20037;-57
2022/04/20 03:56:04;;;;;;;2.95;1.58;;;6.60;89.10;;;;;;5053691;28;20032;-58
2022/04/20 03:58:30;;;;;;;2.28;1.30;;;6.60;88.60;;;;;;5045384;28;20040;-56
2022/04/20 04:00:55;;;;;;;3.17;1.65;;;6.60;88.70;;;;;;5048917;28;20056;-54
2022/04/20 04:03:21;;;;;;;3.20;1.65;;;6.50;89.40;;;;;;5024381;28;20045;-56
2022/04/20 04:05:46;;;;;;;3.50;1.50;;;6.50;89.80;;;;;;5053445;28;20029;-59
2022/04/20 04:08:12;;;;;;;7.03;1.52;;;6.40;90.10;;;;;;5052273;28;20025;-56
2022/04/20 04:10:38;;;;;;;4.78;1.27;;;6.40;90.10;;;;;;5045803;28;20048;-56
2022/04/20 04:13:03;;;;;;;2.83;1.17;;;6.40;90.30;;;;;;5057400;28;20039;-57
2022/04/20 04:15:29;;;;;;;5.18;2.13;;;6.30;90.50;;;;;;5071001;28;20119;-58
2022/04/20 04:17:58;;;;;;;5.93;1.50;;;6.30;90.40;;;;;;5042507;28;20070;-57
2022/04/20 04:20:27;;;;;;;3.83;1.38;;;6.30;90.40;;;;;;5045991;28;20021;-57
2022/04/20 04:22:54;;;;;;;8.60;1.52;;;6.40;90.40;;;;;;5046326;28;20446;-57
2022/04/20 04:25:20;;;;;;;2.95;1.30;;;6.40;90.10;;;;;;5043728;28;20116;-60
2022/04/20 04:27:46;;;;;;;3.30;1.20;;;6.40;90.20;;;;;;5050825;28;20503;-58
2022/04/20 04:30:12;;;;;;;7.68;1.35;;;6.40;90.20;;;;;;5053307;28;20056;-57
2022/04/20 04:32:38;;;;;;;2.47;1.50;;;6.40;90.20;;;;;;5050652;28;20511;-56
2022/04/20 04:35:04;;;;;;;4.75;1.85;;;6.50;90.20;;;;;;5035663;28;20022;-58
2022/04/20 04:37:30;;;;;;;2.63;1.48;;;6.50;90.10;;;;;;5035004;28;20112;-58
2022/04/20 04:39:56;;;;;;;8.10;1.60;;;6.50;89.90;;;;;;5033558;28;20034;-58
2022/04/20 04:42:22;;;;;;;3.47;1.85;;;6.50;89.80;;;;;;5036272;28;20028;-59
2022/04/20 04:44:47;;;;;;;4.90;1.38;;;6.60;89.70;;;;;;5052640;28;20033;-58
2022/04/20 04:50:14;;;;;;;5.75;1.70;;;6.60;89.60;;;;;;5009863;28;20049;-59
2022/04/20 04:52:39;;;;;;;2.85;1.58;;;6.60;89.80;;;;;;5035773;28;20696;-55
2022/04/20 04:55:05;;;;;;;5.03;1.40;;;6.60;89.70;;;;;;5044904;28;20116;-56
2022/04/20 04:57:30;;;;;;;2.88;1.27;;;6.60;89.50;;;;;;5040343;28;20378;-58
2022/04/20 04:59:56;;;;;;;3.38;1.38;;;6.60;89.60;;;;;;5041314;28;20027;-56
2022/04/20 05:02:21;;;;;;;4.38;1.23;;;6.60;90.20;;;;;;5039821;28;20075;-57
2022/04/20 05:04:47;;;;;;;3.15;1.52;;;6.70;90.10;;;;;;5023088;28;20123;-54
2022/04/20 05:07:12;;;;;;;4.30;1.73;;;6.70;90.20;;;;;;5042502;28;20037;-58
2022/04/20 05:09:38;;;;;;;2.63;1.25;;;6.90;90.10;;;;;;5041570;28;20028;-58
2022/04/20 05:12:05;;;;;;;5.95;1.75;;;7.30;88.30;;;;;;5041263;28;20098;-58
2022/04/20 05:14:31;;;;;;;7.75;1.90;;;7.50;87.60;;;;;;5045921;28;20029;-55
2022/04/20 05:16:58;;;;;;;6.00;1.75;;;7.80;86.90;;;;;;5041322;28;20271;-58
2022/04/20 05:19:24;;;;;;;3.30;1.40;;;8.20;84.90;;;;;;5039573;28;20032;-57
2022/04/20 05:21:50;;;;;;;4.63;1.75;;;8.40;83.30;;;;;;5041139;28;20435;-58
2022/04/20 05:24:15;;;;;;;2.58;1.60;;;8.70;82.70;;;;;;5040869;28;20480;-57
2022/04/20 05:26:41;;;;;;;3.53;1.40;;;9.10;80.80;;;;;;5044667;28;20499;-57
2022/04/20 05:29:06;;;;;;;2.28;1.50;;;9.60;79.90;;;;;;5041681;28;20026;-56
2022/04/20 05:31:32;;;;;;;1.77;1.35;;;10.40;76.80;;;;;;5042706;28;20770;-58
2022/04/20 05:33:57;;;;;;;2.90;1.85;;;11.60;73.50;;;;;;5065268;28;20033;-60
2022/04/20 05:36:23;;;;;;;5.53;1.63;;;12.60;69.20;;;;;;5035697;28;20052;-57
2022/04/20 05:41:41;;;;;;;4.22;1.77;;;14.20;63.80;;;;;;5039770;28;20115;-57
2022/04/20 05:44:11;;;;;;;3.72;1.50;;;14.80;63.10;;;;;;5042107;28;20033;-54
2022/04/20 05:46:38;;;;;;;1.83;1.25;;;15.00;59.40;;;;;;5047871;28;20048;-59
2022/04/20 05:49:04;;;;;;;2.13;1.35;;;14.60;60.50;;;;;;5046082;28;20028;-60
2022/04/20 05:51:30;;;;;;;4.03;1.33;;;14.30;61.30;;;;;;5051697;28;20025;-59
2022/04/20 05:53:55;;;;;;;2.75;1.50;;;14.30;61.30;;;;;;5052046;28;20074;-58
2022/04/20 05:56:21;;;;;;;6.25;1.83;;;14.50;61.10;;;;;;5047784;28;20396;-57
2022/04/20 05:58:50;;;;;;;4.18;1.60;;;15.00;60.10;;;;;;5049966;28;20032;-60
2022/04/20 06:01:19;;;;;;;3.92;2.08;;;15.00;61.00;;;;;;5050594;28;20542;-58
2022/04/20 06:03:45;;;;;;;7.32;1.83;;;15.40;60.40;;;;;;5033575;28;20120;-57
2022/04/20 06:06:11;;;;;;;3.85;2.00;;;15.90;58.60;;;;;;5044771;28;20104;-58
2022/04/20 06:08:37;;;;;;;4.68;1.85;;;16.20;59.10;;;;;;5032215;28;20025;-60
2022/04/20 06:11:03;;;;;;;3.05;1.60;;;17.10;56.30;;;;;;5049800;28;20039;-60
2022/04/20 06:13:29;;;;;;;4.97;2.10;;;17.60;55.40;;;;;;5049876;28;20373;-55
2022/04/20 06:15:55;;;;;;;6.07;2.05;;;17.60;55.00;;;;;;5038204;28;20037;-59
2022/04/20 06:18:21;;;;;;;3.10;1.77;;;17.30;56.80;;;;;;5032183;28;20051;-59
2022/04/20 06:20:46;;;;;;;5.32;1.80;;;17.70;55.50;;;;;;5034118;28;20667;-58
2022/04/20 06:23:12;;;;;;;4.60;1.90;;;18.50;54.70;;;;;;5055442;28;20400;-61
2022/04/20 06:25:38;;;;;;;4.43;1.60;;;18.70;53.30;;;;;;5062079;28;20079;-58
2022/04/20 06:28:04;;;;;;;4.20;1.73;;;18.80;53.00;;;;;;5037350;28;20064;-58
2022/04/20 06:30:29;;;;;;;5.13;2.15;;;19.10;52.60;;;;;;5050878;28;20025;-58
2022/04/20 06:32:55;;;;;;;6.35;2.33;;;19.50;50.70;;;;;;5040922;28;20108;-60
2022/04/20 06:35:20;;;;;;;5.25;1.83;;;19.80;49.20;;;;;;5043517;28;20022;-61
2022/04/20 06:37:47;;;;;;;3.03;1.80;;;20.80;48.40;;;;;;5041210;28;20035;-57
2022/04/20 06:40:12;;;;;;;3.17;1.85;;;20.10;47.40;;;;;;5037672;28;20477;-59
2022/04/20 06:42:39;;;;;;;2.47;1.58;;;20.70;47.90;;;;;;5046969;28;20044;-60
2022/04/20 06:45:05;;;;;;;3.65;1.70;;;20.90;47.40;;;;;;5041002;28;20572;-59
2022/04/20 06:47:33;;;;;;;4.43;1.60;;;21.30;47.50;;;;;;5043377;28;20017;-60
2022/04/20 06:49:59;;;;;;;10.77;1.80;;;21.70;48.50;;;;;;5046493;28;20025;-59
2022/04/20 07:00:37;;;;;;;5.57;1.90;;;22.70;44.90;;;;;;5050403;28;20159;-60
2022/04/20 07:03:04;;;;;;;4.80;1.90;;;22.60;45.60;;;;;;5047945;28;20116;-60
2022/04/20 07:05:29;;;;;;;4.90;1.88;;;23.00;42.70;;;;;;5022940;28;20041;-60
2022/04/20 07:07:55;;;;;;;6.32;1.55;;;22.10;42.20;;;;;;5041964;28;20022;-60
2022/04/20 07:10:21;;;;;;;2.90;1.50;;;21.60;42.80;;;;;;5030821;28;20393;-61
2022/04/20 07:12:46;;;;;;;1.80;1.25;;;22.20;44.10;;;;;;5041473;28;20025;-59
2022/04/20 07:15:12;;;;;;;3.50;1.33;;;23.00;43.20;;;;;;5046128;28;20029;-59
2022/04/20 07:17:38;;;;;;;2.60;1.65;;;22.50;42.70;;;;;;5042973;28;20778;-60
2022/04/20 07:20:03;;;;;;;2.65;1.70;;;21.80;42.40;;;;;;5043191;28;20029;-59
2022/04/20 07:22:29;;;;;;;3.47;1.70;;;22.40;45.00;;;;;;5039745;28;20065;-60
2022/04/20 07:24:55;;;;;;;3.55;1.77;;;22.70;42.10;;;;;;5043495;28;20059;-60
2022/04/20 07:27:20;;;;;;;6.65;1.85;;;23.20;42.50;;;;;;5044665;28;20022;-58
2022/04/20 07:29:46;;;;;;;2.83;1.48;;;23.40;42.40;;;;;;5052269;28;20104;-59
2022/04/20 07:32:11;;;;;;;6.05;1.42;;;23.90;41.10;;;;;;5041684;28;20374;-60
2022/04/20 07:34:37;;;;;;;4.60;1.95;;;23.80;41.00;;;;;;5049945;28;20571;-59
2022/04/20 07:37:03;;;;;;;2.05;1.20;;;23.90;40.10;;;;;;5044080;28;20412;-59
2022/04/20 07:39:29;;;;;;;4.85;1.73;;;24.40;40.50;;;;;;5047550;28;20104;-57
2022/04/20 07:41:54;;;;;;;4.05;1.40;;;23.80;39.80;;;;;;5034988;28;20043;-58
2022/04/20 07:44:20;;;;;;;5.53;1.67;;;23.60;39.50;;;;;;5050187;28;20534;-61
2022/04/20 07:46:46;;;;;;;5.65;1.52;;;23.60;41.90;;;;;;5050736;28;20028;-54
2022/04/20 07:51:55;;;;;;;3.17;1.33;;;24.20;40.30;;;;;;5036095;28;20117;-59
2022/04/20 07:54:22;;;;;;;4.65;1.88;;;24.50;39.90;;;;;;5052558;28;20104;-61
2022/04/20 07:56:47;;;;;;;4.30;1.80;;;23.80;39.80;;;;;;5040047;28;20121;-56
2022/04/20 07:59:13;;;;;;;2.55;1.50;;;23.80;39.60;;;;;;5042345;28;20108;-61
2022/04/20 08:01:38;;;;;;;4.28;1.63;;;23.80;39.90;;;;;;5050545;28;20040;-58
2022/04/20 08:04:05;;;;;;;5.93;1.52;;;23.60;39.40;;;;;;5027762;28;20040;-58
2022/04/20 08:06:31;;;;;;;4.38;1.60;;;23.80;40.10;;;;;;5041634;28;20037;-59
2022/04/20 08:08:56;;;;;;;2.17;1.45;;;24.60;39.90;;;;;;5041230;28;20052;-58
2022/04/20 08:11:22;;;;;;;3.90;1.58;;;24.70;38.10;;;;;;5041421;28;20037;-60
2022/04/20 08:16:31;;;;;;;2.67;1.60;;;24.00;37.90;;;;;;5050358;28;20124;-61
2022/04/20 08:18:57;;;;;;;5.07;1.77;;;23.90;39.50;;;;;;5051933;28;20496;-61
2022/04/20 08:21:22;;;;;;;3.50;1.60;;;22.80;38.50;;;;;;5041909;28;20034;-60
2022/04/20 08:23:48;;;;;;;5.55;1.55;;;23.40;39.60;;;;;;5042428;28;20063;-59
2022/04/20 08:26:13;;;;;;;2.15;1.45;;;24.00;39.60;;;;;;5041673;28;20037;-59
2022/04/20 08:28:39;;;;;;;4.63;1.63;;;24.10;38.00;;;;;;5042336;28;20547;-58
2022/04/20 08:31:04;;;;;;;2.85;1.33;;;23.90;37.00;;;;;;5043741;28;20037;-61
2022/04/20 08:33:30;;;;;;;4.07;1.42;;;23.50;39.00;;;;;;5040361;28;20058;-59
2022/04/20 08:35:56;;;;;;;2.90;1.42;;;23.20;38.00;;;;;;5037886;28;20037;-59
2022/04/20 08:38:22;;;;;;;2.10;1.40;;;23.00;38.80;;;;;;5039655;28;20030;-61
2022/04/20 08:40:49;;;;;;;8.35;1.75;;;23.00;38.60;;;;;;5041652;28;20068;-59
2022/04/20 08:43:14;;;;;;;1.90;1.23;;;23.30;38.20;;;;;;5042876;28;20025;-61
2022/04/20 08:45:41;;;;;;;2.78;1.40;;;23.30;38.00;;;;;;5045325;28;20048;-59
2022/04/20 08:48:07;;;;;;;3.22;1.38;;;23.70;38.80;;;;;;5037517;28;20032;-58
2022/04/20 08:50:32;;;;;;;10.48;1.70;;;23.60;38.40;;;;;;5045675;28;20017;-58
2022/04/20 08:52:58;;;;;;;2.00;1.35;;;22.80;38.10;;;;;;5040551;28;20488;-60
2022/04/20 08:55:24;;;;;;;2.83;1.58;;;23.10;37.90;;;;;;5039051;28;20111;-61
2022/04/20 08:57:54;;;;;;;5.47;1.55;;;22.70;38.50;;;;;;5042700;28;20049;-61
2022/04/20 09:00:22;;;;;;;5.00;1.55;;;22.90;38.90;;;;;;5041534;28;20068;-60
2022/04/20 09:03:00;;;;;;;6.03;1.50;;;22.50;39.20;;;;;;5041332;28;20032;-61
2022/04/20 09:05:28;;;;;;;7.43;1.70;;;23.40;38.60;;;;;;5018578;28;20048;-61
2022/04/20 09:07:54;;;;;;;1.77;1.23;;;23.30;38.40;;;;;;5043349;28;20026;-60
2022/04/20 09:10:20;;;;;;;2.05;1.40;;;23.30;38.00;;;;;;5046930;28;20040;-61
2022/04/20 09:12:46;;;;;;;2.22;1.45;;;23.00;38.60;;;;;;5043426;28;20021;-60
2022/04/20 09:15:27;;;;;;;3.03;1.58;;;23.40;39.60;;;;;;5045354;28;20041;-60
2022/04/20 09:17:52;;;;;;;3.85;1.75;;;22.90;37.90;;;;;;5039499;28;20485;-60
2022/04/20 09:20:19;;;;;;;2.25;1.52;;;22.60;38.90;;;;;;5051985;28;20040;-60
2022/04/20 09:23:01;;;;;;;2.95;1.73;;;22.70;38.90;;;;;;5039660;28;20032;-60
2022/04/20 09:25:34;;;;;;;3.38;1.83;;;21.90;39.00;;;;;;5054006;28;20454;-60
2022/04/20 09:28:00;;;;;;;;;;;22.50;38.70;;;;;;5062013;22;20702;-59
2022/04/20 09:30:32;;;;;;;4.53;1.77;;;22.10;39.40;;;;;;5066344;28;19923;-59
2022/04/20 09:32:57;;;;;;;5.00;1.40;;;23.10;38.40;;;;;;5065437;28;20081;-61
2022/04/20 09:35:23;;;;;;;2.05;1.42;;;23.20;38.60;;;;;;5066161;28;20045;-61
2022/04/20 09:38:07;;;;;;;4.03;1.77;;;22.50;37.70;;;;;;5065999;28;20071;-60
2022/04/20 09:40:35;;;;;;;2.58;1.75;;;22.40;39.10;;;;;;5048048;28;20078;-60
2022/04/20 09:43:06;;;;;;;2.95;1.55;;;22.40;39.80;;;;;;5045644;28;20083;-61
2022/04/20 09:45:33;;;;;;;3.30;1.85;;;22.80;40.80;;;;;;5049637;28;20519;-61
2022/04/20 09:51:10;;;;;;;;;;;23.80;38.50;;;;;;5044234;28;20059;-61
2022/04/20 09:53:36;;;;;;;3.47;1.42;;;23.30;38.30;;;;;;5047769;28;20326;-61
2022/04/20 09:56:16;;;;;;;2.45;1.52;;;22.90;38.00;;;;;;5049665;28;20042;-61
2022/04/20 09:58:41;;;;;;;3.75;1.67;;;22.90;39.10;;;;;;5047075;28;20128;-61
2022/04/20 10:01:22;;;;;;;2.47;1.65;;;21.80;38.80;;;;;;5044602;28;20128;-60
2022/04/20 10:03:53;;;;;;;2.72;1.73;;;21.70;39.30;;;;;;5044777;28;20021;-60
2022/04/20 10:06:19;;;;;;;2.88;2.10;;;21.10;40.20;;;;;;5022104;28;20045;-60
2022/04/20 10:08:44;;;;;;;8.50;2.40;;;20.70;40.60;;;;;;5045562;28;20104;-59
2022/04/20 10:11:13;;;;;;;3.45;1.90;;;20.20;41.50;;;;;;5028434;28;20034;-59
2022/04/20 10:13:39;;;;;;;5.82;1.80;;;20.00;42.40;;;;;;5032365;28;20021;-60
2022/04/20 10:16:10;;;;;;;2.03;1.50;;;20.10;42.40;;;;;;5033209;28;20112;-59
2022/04/20 10:18:40;;;;;;;2.47;1.85;;;19.90;43.10;;;;;;5041158;28;20112;-60
2022/04/20 10:21:11;;;;;;;3.65;1.65;;;19.80;43.60;;;;;;5038316;28;20481;-60
2022/04/20 10:23:40;;;;;;;2.20;1.67;;;19.60;42.40;;;;;;5040921;28;20022;-59
2022/04/20 10:26:10;;;;;;;1.83;1.55;;;19.40;42.10;;;;;;5029868;28;20021;-60
2022/04/20 10:28:46;;;;;;;3.55;1.63;;;19.20;42.20;;;;;;5036946;28;20025;-59
2022/04/20 10:31:36;;;;;;;4.85;2.13;;;18.90;43.30;;;;;;5028110;28;20083;-60
2022/04/20 10:34:03;;;;;;;2.70;1.67;;;18.80;42.80;;;;;;5028768;28;20396;-59
2022/04/20 10:36:31;;;;;;;6.43;2.08;;;18.50;43.40;;;;;;5036183;28;20099;-60
2022/04/20 10:39:26;;;;;;;2.10;1.50;;;18.60;44.00;;;;;;5039672;28;20091;-60
2022/04/20 10:42:15;;;;;;;2.55;1.50;;;18.60;43.90;;;;;;5026561;28;20032;-58
2022/04/20 10:44:58;;;;;;;2.70;1.83;;;18.50;45.00;;;;;;5028580;28;20025;-60
2022/04/20 10:47:55;;;;;;;2.95;1.80;;;18.50;44.50;;;;;;5030570;28;20021;-59
2022/04/20 10:50:22;;;;;;;2.72;1.65;;;18.30;44.00;;;;;;5022218;28;20044;-60
2022/04/20 10:53:02;;;;;;;2.40;1.88;;;18.50;44.90;;;;;;5022532;28;20536;-58
2022/04/20 10:55:31;;;;;;;5.40;1.42;;;18.60;44.10;;;;;;5029342;28;20544;-59
2022/04/20 10:57:57;;;;;;;3.17;1.67;;;18.60;46.10;;;;;;5027549;28;20095;-58
2022/04/20 11:00:26;;;;;;;2.95;1.77;;;18.80;44.30;;;;;;5046355;28;20025;-60
2022/04/20 11:02:53;;;;;;;5.03;1.88;;;18.60;45.20;;;;;;5045200;28;20032;-60
2022/04/20 11:05:21;;;;;;;3.92;1.90;;;18.30;44.70;;;;;;5019585;28;20079;-61
2022/04/20 11:08:05;;;;;;;3.38;1.38;;;18.50;46.20;;;;;;5027700;28;20544;-60
2022/04/20 11:10:32;;;;;;;3.22;1.75;;;18.40;45.00;;;;;;5032050;28;20025;-60
2022/04/20 11:19:12;;;;;;;2.80;1.65;;;18.40;43.80;;;;;;5023547;28;20048;-61
2022/04/20 11:21:55;;;;;;;2.00;1.10;;;18.30;45.10;;;;;;5027319;28;20039;-60
2022/04/20 11:24:30;;;;;;;4.13;1.73;;;17.90;44.80;;;;;;5026536;28;20440;-60
2022/04/20 11:26:58;;;;;;;2.58;1.67;;;17.70;45.20;;;;;;5023345;28;20038;-58
2022/04/20 11:29:28;;;;;;;2.67;1.70;;;18.00;45.60;;;;;;5029658;28;20022;-59
2022/04/20 11:31:59;;;;;;;3.20;1.60;;;17.70;45.00;;;;;;5043893;28;20018;-60
2022/04/20 11:34:26;;;;;;;3.58;1.48;;;17.70;45.00;;;;;;5026630;28;20032;-61
2022/04/20 11:36:57;;;;;;;2.55;1.48;;;17.60;47.70;;;;;;5025394;28;20029;-61
2022/04/20 11:39:28;;;;;;;11.05;1.50;;;17.80;46.40;;;;;;5014958;28;20025;-59
2022/04/20 11:42:04;;;;;;;2.17;1.50;;;17.50;45.90;;;;;;5026308;28;20519;-60
2022/04/20 11:44:41;;;;;;;1.92;1.38;;;17.70;45.90;;;;;;5024260;28;20075;-61
2022/04/20 11:47:09;;;;;;;2.83;1.50;;;17.70;47.40;;;;;;5028907;28;20033;-60
2022/04/20 11:49:46;;;;;;;9.40;2.78;;;17.70;46.10;;;;;;5029176;28;20036;-61
2022/04/20 11:52:14;;;;;;;4.88;1.73;;;17.70;47.70;;;;;;5027631;28;20029;-60
2022/04/20 11:54:45;;;;;;;4.85;1.75;;;17.80;47.80;;;;;;5022833;28;20033;-61
2022/04/20 11:57:12;;;;;;;3.78;1.67;;;17.80;48.90;;;;;;5025470;28;20053;-59
2022/04/20 11:59:46;;;;;;;3.55;1.45;;;18.00;46.60;;;;;;5027894;28;20030;-60
2022/04/20 12:02:15;;;;;;;2.00;1.40;;;17.80;45.90;;;;;;5023578;28;20421;-61
2022/04/20 12:04:42;;;;;;;2.38;1.30;;;17.70;46.50;;;;;;5021189;28;20033;-60
2022/04/20 12:07:08;;;;;;;2.47;1.48;;;17.60;46.70;;;;;;5055608;28;20496;-60
2022/04/20 12:09:36;;;;;;;1.88;1.25;;;17.50;46.00;;;;;;5051035;28;20040;-60
2022/04/20 12:12:03;;;;;;;1.65;1.20;;;17.60;46.80;;;;;;5056865;28;20044;-61
2022/04/20 12:14:32;;;;;;;2.95;1.10;;;17.70;47.00;;;;;;5055335;28;20515;-60
2022/04/20 12:17:02;;;;;;;5.88;1.60;;;17.70;46.80;;;;;;5054033;28;20040;-61
2022/04/20 12:19:28;;;;;;;4.05;1.83;;;17.60;47.90;;;;;;5052190;28;20041;-59
2022/04/20 12:21:54;;;;;;;2.83;1.30;;;17.60;46.90;;;;;;5057572;28;20052;-60
2022/04/20 12:24:26;;;;;;;6.00;1.40;;;17.50;47.60;;;;;;5050957;28;20073;-60
2022/04/20 12:26:56;;;;;;;2.53;1.35;;;17.40;48.10;;;;;;5048063;28;20021;-59
2022/04/20 12:29:32;;;;;;;1.77;1.40;;;17.30;47.60;;;;;;5044385;28;20029;-60
2022/04/20 12:31:57;;;;;;;3.47;1.50;;;17.40;48.00;;;;;;5057434;28;20116;-59
2022/04/20 12:34:25;;;;;;;1.95;1.38;;;17.50;48.60;;;;;;5048939;28;20132;-60
2022/04/20 12:36:53;;;;;;;4.78;1.45;;;17.60;47.50;;;;;;5049322;28;20106;-60
2022/04/20 12:39:30;;;;;;;4.88;1.63;;;17.70;47.70;;;;;;5051166;28;20082;-68
2022/04/20 12:42:06;;;;;;;3.80;1.38;;;17.70;47.40;;;;;;5045240;28;20056;-61
2022/04/20 12:44:52;;;;;;;3.35;1.30;;;17.70;47.60;;;;;;5047893;28;20021;-60
2022/04/20 12:47:18;;;;;;;2.65;1.48;;;17.80;48.10;;;;;;5055843;28;20467;-59
2022/04/20 12:49:50;;;;;;;2.47;1.65;;;17.90;48.50;;;;;;5059385;28;20021;-61
2022/04/20 12:52:19;;;;;;;2.65;1.50;;;17.70;47.40;;;;;;5057758;28;20082;-60
2022/04/20 12:54:58;;;;;;;2.63;1.92;;;17.60;47.70;;;;;;5049263;28;20576;-61
2022/04/20 13:03:12;;;;;;;2.70;2.13;;;17.40;48.10;;;;;;5060304;28;20117;-60
2022/04/20 13:05:39;;;;;;;4.05;1.58;;;17.40;49.20;;;;;;5027242;28;20048;-60
2022/04/20 13:08:06;;;;;;;4.75;1.70;;;17.40;49.40;;;;;;5038076;28;20120;-59
2022/04/20 13:10:34;;;;;;;4.55;1.42;;;17.50;48.40;;;;;;5038700;28;20516;-61
2022/04/20 13:13:00;;;;;;;2.38;1.42;;;17.60;49.30;;;;;;5036192;28;20117;-60
2022/04/20 13:15:27;;;;;;;2.45;1.30;;;17.70;49.10;;;;;;5037608;28;20029;-59
2022/04/20 13:17:52;;;;;;;3.70;1.08;;;17.50;48.60;;;;;;5031905;28;20499;-60
2022/04/20 13:20:20;;;;;;;3.60;1.88;;;17.60;49.80;;;;;;5030352;28;20025;-60
2022/04/20 13:22:45;;;;;;;5.00;2.05;;;17.70;50.40;;;;;;5034309;28;20112;-61
2022/04/20 13:27:56;;;;;;;2.28;1.30;;;17.70;48.00;;;;;;5019942;28;20134;-60
2022/04/20 13:30:35;;;;;;;2.53;1.63;;;17.80;47.70;;;;;;5031551;28;20108;-60
2022/04/20 13:33:10;;;;;;;2.60;1.55;;;17.80;47.50;;;;;;5018172;28;20143;-60
2022/04/20 13:35:37;;;;;;;7.95;1.95;;;17.80;47.70;;;;;;5030131;28;20032;-61
2022/04/20 13:38:03;;;;;;;4.13;1.30;;;17.80;50.10;;;;;;5025588;28;20082;-61